Time;durP1;ratioP1;P1;durP2;ratioP2;P2;SDS_P1;SDS_P2;PMS_P1;PMS_P2;Temp;Humidity;BMP_temperature;BMP_pressure;BME280_temperature;BME280_humidity;BME280_pressure;Samples;Min_cycle;Max_cycle;Signal;HPM_P1;HPM_P2
2021/05/13 00:02:23;;;;;;;16.48;9.48;;;409.70;2278.40;;;;;;5094755;28;20039;-68
2021/05/13 00:04:49;;;;;;;13.27;8.95;;;409.60;2278.40;;;;;;5094465;28;20384;-70
2021/05/13 00:07:15;;;;;;;12.05;8.60;;;409.70;2278.40;;;;;;5094407;28;20024;-68
2021/05/13 00:09:43;;;;;;;10.82;8.68;;;409.70;2252.80;;;;;;5094403;28;20380;-70
2021/05/13 00:12:25;;;;;;;12.10;9.23;;;409.80;2252.80;;;;;;5094114;28;20040;-68
2021/05/13 00:14:51;;;;;;;12.20;9.13;;;409.80;2252.80;;;;;;5092978;28;20032;-68
2021/05/13 00:17:17;;;;;;;15.02;9.35;;;409.80;2252.80;;;;;;5094195;28;20031;-68
2021/05/13 00:19:43;;;;;;;14.50;9.85;;;409.80;2278.40;;;;;;5094395;28;20483;-68
2021/05/13 00:22:09;;;;;;;13.48;8.82;;;409.80;2278.40;;;;;;5092833;28;20028;-70
2021/05/13 00:24:34;;;;;;;12.68;9.43;;;409.80;2278.40;;;;;;5094123;28;20563;-67
2021/05/13 00:27:02;;;;;;;14.38;9.80;;;409.90;2278.40;;;;;;5094635;28;20024;-67
2021/05/13 00:29:28;;;;;;;13.73;10.05;;;409.90;2278.40;;;;;;5093126;28;20016;-67
2021/05/13 00:31:54;;;;;;;12.02;9.60;;;409.80;2304.00;;;;;;5094014;28;20054;-68
2021/05/13 00:34:20;;;;;;;11.68;9.68;;;409.80;2304.00;;;;;;5093946;28;20024;-70
2021/05/13 00:36:46;;;;;;;13.48;9.55;;;409.80;2304.00;;;;;;5093482;28;20059;-70
2021/05/13 00:39:11;;;;;;;15.15;9.43;;;409.90;2304.00;;;;;;5093962;28;20353;-68
2021/05/13 00:41:38;;;;;;;12.23;9.43;;;409.80;2304.00;;;;;;5093778;28;20024;-68
2021/05/13 00:44:06;;;;;;;12.77;10.07;;;409.80;2304.00;;;;;;5092495;28;20103;-67
2021/05/13 00:46:32;;;;;;;13.48;10.50;;;409.80;2304.00;;;;;;5093745;28;20025;-68
2021/05/13 00:49:31;;;;;;;13.00;10.38;;;409.80;2329.60;;;;;;5093724;28;20059;-67
2021/05/13 00:51:50;;;;;;;14.02;10.25;;;409.80;2304.00;;;;;;5090526;28;20384;-69
2021/05/13 00:54:18;;;;;;;13.82;10.73;;;409.80;2329.60;;;;;;5093632;28;20107;-68
2021/05/13 00:56:44;;;;;;;14.88;11.00;;;409.80;2329.60;;;;;;5093593;28;20070;-67
2021/05/13 00:59:12;;;;;;;15.30;10.57;;;409.80;2329.60;;;;;;5093555;28;20438;-68
2021/05/13 01:04:11;;;;;;;13.35;10.27;;;409.70;2329.60;;;;;;5094197;28;20457;-70
2021/05/13 01:06:37;;;;;;;13.13;10.68;;;409.80;2329.60;;;;;;5093612;28;20499;-67
2021/05/13 01:09:09;;;;;;;13.20;11.02;;;409.80;2329.60;;;;;;5093530;28;20100;-70
2021/05/13 01:11:36;;;;;;;15.82;11.43;;;409.80;2329.60;;;;;;5093463;28;20431;-67
2021/05/13 01:14:50;;;;;;;16.45;11.93;;;409.80;2355.20;;;;;;5093509;28;20049;-68
2021/05/13 01:19:26;;;;;;;16.70;9.85;;;409.70;2355.20;;;;;;5093496;28;20020;-67
2021/05/13 01:21:53;;;;;;;12.35;7.93;;;409.70;2355.20;;;;;;5093468;28;20020;-69
2021/05/13 01:24:19;;;;;;;16.60;7.47;;;409.60;2329.60;;;;;;5093429;28;20473;-69
2021/05/13 01:26:46;;;;;;;11.45;6.43;;;409.60;2329.60;;;;;;5093342;28;20020;-68
2021/05/13 01:29:16;;;;;;;20.73;6.82;;;409.70;2329.60;;;;;;5093382;28;20054;-68
2021/05/13 01:31:42;;;;;;;15.68;5.82;;;409.70;2329.60;;;;;;5093750;28;20029;-68
2021/05/13 01:34:08;;;;;;;8.52;4.68;;;409.70;2329.60;;;;;;5093457;28;20020;-68
2021/05/13 01:36:35;;;;;;;10.15;4.70;;;409.60;2329.60;;;;;;5091923;28;20033;-68
2021/05/13 01:39:03;;;;;;;8.30;4.30;;;409.60;2304.00;;;;;;5093281;28;20024;-68
2021/05/13 01:41:29;;;;;;;6.82;3.72;;;409.80;2278.40;;;;;;5093551;28;20138;-68
2021/05/13 01:43:55;;;;;;;6.05;3.53;;;409.80;2278.40;;;;;;5093513;28;20066;-68
2021/05/13 01:46:21;;;;;;;16.42;3.90;;;409.80;2278.40;;;;;;5093126;28;20078;-68
2021/05/13 01:48:47;;;;;;;6.85;3.28;;;409.90;2278.40;;;;;;5095862;28;20059;-68
2021/05/13 01:51:13;;;;;;;11.93;4.15;;;410.00;2252.80;;;;;;5097068;28;20018;-69
2021/05/13 01:53:40;;;;;;;8.55;3.70;;;410.00;2278.40;;;;;;5097061;28;20439;-68
2021/05/13 01:56:07;;;;;;;6.28;3.40;;;410.00;2252.80;;;;;;5097185;28;20123;-67
2021/05/13 01:58:33;;;;;;;7.95;3.35;;;410.00;2278.40;;;;;;5097188;28;20073;-70
2021/05/13 02:00:59;;;;;;;6.03;3.13;;;410.10;2278.40;;;;;;5097143;28;20024;-68
2021/05/13 02:03:26;;;;;;;13.38;3.83;;;410.10;2252.80;;;;;;5096815;28;20491;-68
2021/05/13 02:05:52;;;;;;;6.85;3.55;;;410.10;2252.80;;;;;;5096884;28;20525;-70
2021/05/13 02:08:18;;;;;;;8.43;3.88;;;410.10;2252.80;;;;;;5096993;28;20020;-68
2021/05/13 02:10:44;;;;;;;5.97;3.15;;;410.10;2227.20;;;;;;5095449;28;20384;-68
2021/05/13 02:13:09;;;;;;;7.95;3.30;;;410.00;2252.80;;;;;;5096264;28;20056;-70
2021/05/13 02:15:35;;;;;;;7.18;3.75;;;409.90;2252.80;;;;;;5096668;28;20058;-68
2021/05/13 02:18:01;;;;;;;7.22;3.75;;;409.90;2252.80;;;;;;5096549;28;20109;-68
2021/05/13 02:20:27;;;;;;;6.95;3.70;;;409.80;2252.80;;;;;;5096499;28;20491;-68
2021/05/13 02:22:55;;;;;;;7.97;2.83;;;409.90;2227.20;;;;;;5096466;28;20024;-70
2021/05/13 02:25:21;;;;;;;5.82;2.63;;;409.80;2252.80;;;;;;5096548;28;20047;-70
2021/05/13 02:27:47;;;;;;;4.25;2.85;;;409.80;2252.80;;;;;;5096548;28;20028;-68
2021/05/13 02:30:14;;;;;;;7.32;3.88;;;409.70;2252.80;;;;;;5096316;28;20039;-70
2021/05/13 02:32:40;;;;;;;7.90;3.88;;;409.80;2252.80;;;;;;5096284;28;20457;-68
2021/05/13 02:35:07;;;;;;;9.25;3.90;;;409.80;2252.80;;;;;;5096195;28;20032;-67
2021/05/13 02:37:34;;;;;;;6.88;4.18;;;409.80;2252.80;;;;;;5096193;28;20101;-68
2021/05/13 02:40:00;;;;;;;7.45;4.28;;;409.80;2252.80;;;;;;5096262;28;20471;-68
2021/05/13 02:42:25;;;;;;;6.10;4.28;;;409.80;2252.80;;;;;;5096085;28;20073;-68
2021/05/13 02:44:51;;;;;;;6.15;4.43;;;409.70;2252.80;;;;;;5096023;28;20021;-70
2021/05/13 02:47:17;;;;;;;7.97;4.72;;;409.60;2252.80;;;;;;5096288;28;20499;-68
2021/05/13 02:49:43;;;;;;;5.68;4.50;;;384.90;2252.80;;;;;;5095927;28;20032;-68
2021/05/13 02:52:09;;;;;;;8.23;4.35;;;384.90;2252.80;;;;;;5096259;28;20434;-67
2021/05/13 02:54:35;;;;;;;10.20;4.43;;;384.80;2252.80;;;;;;5095840;28;20031;-70
2021/05/13 02:57:00;;;;;;;8.30;4.93;;;384.80;2252.80;;;;;;5095795;28;20024;-68
2021/05/13 02:59:41;;;;;;;7.80;4.68;;;384.80;2252.80;;;;;;5095866;28;20108;-68
2021/05/13 03:02:07;;;;;;;8.07;4.90;;;384.80;2252.80;;;;;;5095824;28;20028;-67
2021/05/13 03:04:33;;;;;;;6.68;5.00;;;384.80;2278.40;;;;;;5096263;28;20209;-67
2021/05/13 03:07:00;;;;;;;8.63;5.18;;;384.80;2278.40;;;;;;5095931;28;20404;-70
2021/05/13 03:09:26;;;;;;;12.10;4.97;;;384.70;2278.40;;;;;;5095871;28;20025;-67
2021/05/13 03:11:52;;;;;;;6.68;4.75;;;384.70;2278.40;;;;;;5095617;28;20468;-68
2021/05/13 03:14:18;;;;;;;8.10;5.88;;;384.60;2304.00;;;;;;5095255;28;20396;-67
2021/05/13 03:16:44;;;;;;;11.57;5.55;;;384.60;2304.00;;;;;;5095360;28;20032;-67
2021/05/13 03:19:22;;;;;;;7.93;5.82;;;384.50;2304.00;;;;;;5095859;28;20103;-69
2021/05/13 03:21:50;;;;;;;9.80;5.93;;;384.50;2304.00;;;;;;5095626;28;20070;-70
2021/05/13 03:24:37;;;;;;;8.88;6.18;;;384.60;2304.00;;;;;;5095143;28;20464;-70
2021/05/13 03:27:13;;;;;;;11.25;6.22;;;384.60;2304.00;;;;;;5095344;28;20028;-68
2021/05/13 03:29:39;;;;;;;13.30;6.63;;;384.60;2304.00;;;;;;5095246;28;20035;-67
2021/05/13 03:32:06;;;;;;;11.73;6.70;;;384.60;2304.00;;;;;;5095049;28;20391;-67
2021/05/13 03:34:31;;;;;;;11.43;6.88;;;384.60;2304.00;;;;;;5095282;28;20035;-67
2021/05/13 03:36:57;;;;;;;9.55;7.25;;;384.60;2304.00;;;;;;5094941;28;20036;-67
2021/05/13 03:39:23;;;;;;;10.30;7.13;;;384.50;2304.00;;;;;;5094956;28;20077;-67
2021/05/13 03:41:49;;;;;;;9.57;7.72;;;384.60;2304.00;;;;;;5094856;28;20436;-67
2021/05/13 03:44:15;;;;;;;11.98;7.65;;;384.60;2304.00;;;;;;5094907;28;20464;-67
2021/05/13 03:46:41;;;;;;;9.27;7.47;;;384.60;2278.40;;;;;;5094779;28;20095;-67
2021/05/13 03:49:07;;;;;;;10.20;7.03;;;384.70;2278.40;;;;;;5094759;28;20042;-67
2021/05/13 03:51:33;;;;;;;9.07;7.00;;;384.70;2278.40;;;;;;5094733;28;20032;-67
2021/05/13 03:53:59;;;;;;;13.80;8.07;;;384.70;2278.40;;;;;;5094687;28;20024;-70
2021/05/13 03:56:24;;;;;;;10.35;8.63;;;384.70;2278.40;;;;;;5094570;28;20066;-67
2021/05/13 03:59:05;;;;;;;10.77;8.15;;;384.70;2278.40;;;;;;5093383;28;20024;-69
2021/05/13 04:04:15;;;;;;;12.68;8.13;;;384.60;2304.00;;;;;;5094852;28;20031;-67
2021/05/13 04:06:41;;;;;;;11.43;7.90;;;384.60;2304.00;;;;;;5094445;28;20020;-67
2021/05/13 04:09:09;;;;;;;9.45;7.45;;;384.60;2304.00;;;;;;5094537;28;20028;-67
2021/05/13 04:11:39;;;;;;;11.40;8.50;;;384.60;2304.00;;;;;;5094081;28;20027;-70
2021/05/13 04:14:08;;;;;;;11.18;8.00;;;384.60;2329.60;;;;;;5094828;28;20094;-68
2021/05/13 04:16:36;;;;;;;9.82;8.15;;;384.60;2304.00;;;;;;5094373;28;20060;-71
2021/05/13 04:19:03;;;;;;;12.70;8.73;;;384.70;2304.00;;;;;;5094710;28;20024;-71
2021/05/13 04:21:29;;;;;;;10.57;8.20;;;384.70;2304.00;;;;;;5094464;28;20032;-67
2021/05/13 04:23:56;;;;;;;10.52;7.95;;;384.70;2304.00;;;;;;5094155;28;20032;-67
2021/05/13 04:26:22;;;;;;;10.30;7.80;;;384.80;2278.40;;;;;;5094387;28;20095;-68
2021/05/13 04:28:49;;;;;;;16.90;14.90;;;384.80;2278.40;;;;;;5094165;28;20024;-67
2021/05/13 04:31:15;;;;;;;12.48;11.18;;;384.70;2304.00;;;;;;5094402;28;20020;-70
2021/05/13 04:33:40;;;;;;;10.10;8.75;;;384.80;2278.40;;;;;;5093941;28;20103;-67
2021/05/13 04:36:07;;;;;;;11.95;8.95;;;384.80;2278.40;;;;;;5094135;28;20429;-67
2021/05/13 04:38:33;;;;;;;12.00;8.85;;;384.80;2304.00;;;;;;5093949;28;20016;-68
2021/05/13 04:41:00;;;;;;;9.85;8.13;;;384.80;2304.00;;;;;;5093935;28;20016;-70
2021/05/13 04:43:36;;;;;;;8.73;7.55;;;384.80;2304.00;;;;;;5093841;28;20024;-68
2021/05/13 04:46:03;;;;;;;10.60;7.53;;;384.80;2304.00;;;;;;5094039;28;20078;-70
2021/05/13 04:48:41;;;;;;;13.48;9.50;;;384.80;2329.60;;;;;;5093802;28;20489;-68
2021/05/13 04:51:07;;;;;;;9.43;7.90;;;384.80;2329.60;;;;;;5094064;28;20412;-69
2021/05/13 04:53:33;;;;;;;14.35;8.77;;;384.80;2304.00;;;;;;5093680;28;20070;-68
2021/05/13 04:56:00;;;;;;;12.98;8.02;;;384.80;2304.00;;;;;;5093534;28;20036;-68
2021/05/13 04:58:26;;;;;;;9.07;6.78;;;384.80;2304.00;;;;;;5094234;28;20024;-70
2021/05/13 05:00:52;;;;;;;9.18;6.70;;;384.90;2304.00;;;;;;5093639;28;20365;-70
2021/05/13 05:03:18;;;;;;;8.38;6.45;;;384.90;2304.00;;;;;;5093637;28;20058;-67
2021/05/13 05:05:44;;;;;;;10.32;7.40;;;384.90;2304.00;;;;;;5093574;28;20031;-69
2021/05/13 05:08:09;;;;;;;10.43;7.05;;;384.90;2329.60;;;;;;5093659;28;20024;-70
2021/05/13 05:10:35;;;;;;;9.32;6.95;;;409.60;2329.60;;;;;;5093529;28;20032;-69
2021/05/13 05:13:01;;;;;;;9.80;6.25;;;384.90;2304.00;;;;;;5093656;28;20527;-68
2021/05/13 05:15:27;;;;;;;12.02;6.43;;;384.90;2304.00;;;;;;5093287;28;20369;-69
2021/05/13 05:17:53;;;;;;;8.88;7.35;;;384.90;2304.00;;;;;;5092195;28;20024;-67
2021/05/13 05:20:19;;;;;;;7.78;6.70;;;384.90;2304.00;;;;;;5093399;28;20031;-69
2021/05/13 05:22:45;;;;;;;8.57;7.20;;;384.90;2329.60;;;;;;5094275;28;20395;-70
2021/05/13 05:25:11;;;;;;;8.85;6.13;;;384.90;2329.60;;;;;;5097639;28;20480;-70
2021/05/13 05:27:37;;;;;;;7.53;6.03;;;384.80;2329.60;;;;;;5097496;28;20032;-68
2021/05/13 05:30:05;;;;;;;11.07;6.60;;;384.80;2329.60;;;;;;5097503;28;20028;-69
2021/05/13 05:32:31;;;;;;;8.48;5.93;;;384.90;2329.60;;;;;;5097380;28;20036;-70
2021/05/13 05:35:00;;;;;;;9.13;6.13;;;384.90;2329.60;;;;;;5097428;28;20536;-69
2021/05/13 05:37:26;;;;;;;8.05;5.85;;;384.90;2329.60;;;;;;5097715;28;20020;-68
2021/05/13 05:39:52;;;;;;;7.78;5.68;;;409.60;2329.60;;;;;;5096228;28;20024;-70
2021/05/13 05:42:18;;;;;;;8.38;6.53;;;409.60;2329.60;;;;;;5097346;28;20103;-70
2021/05/13 05:44:44;;;;;;;9.77;5.68;;;409.70;2355.20;;;;;;5097176;28;20043;-68
2021/05/13 05:47:11;;;;;;;10.38;6.93;;;409.60;2355.20;;;;;;5097343;28;20053;-70
2021/05/13 05:49:37;;;;;;;7.43;5.35;;;409.80;2329.60;;;;;;5097280;28;20460;-68
2021/05/13 05:52:03;;;;;;;7.45;5.07;;;409.70;2329.60;;;;;;5097427;28;20070;-70
2021/05/13 05:54:29;;;;;;;5.57;4.80;;;409.80;2355.20;;;;;;5097322;28;20483;-70
2021/05/13 05:56:55;;;;;;;11.60;5.80;;;409.80;2329.60;;;;;;5096940;28;20036;-68
2021/05/13 05:59:21;;;;;;;8.52;5.25;;;409.80;2355.20;;;;;;5096950;28;20524;-71
2021/05/13 06:01:46;;;;;;;8.13;5.43;;;409.80;2355.20;;;;;;5097061;28;20380;-70
2021/05/13 06:04:12;;;;;;;7.45;5.28;;;409.80;2355.20;;;;;;5097064;28;20384;-70
2021/05/13 06:06:38;;;;;;;8.75;4.68;;;409.80;2355.20;;;;;;5097368;28;20028;-70
2021/05/13 06:09:05;;;;;;;9.88;4.40;;;409.80;2355.20;;;;;;5096833;28;20078;-71
2021/05/13 06:11:31;;;;;;;6.40;4.57;;;409.80;2329.60;;;;;;5097235;28;20028;-70
2021/05/13 06:13:57;;;;;;;7.15;4.60;;;409.80;2355.20;;;;;;5096733;28;20507;-70
2021/05/13 06:16:23;;;;;;;7.38;5.18;;;409.80;2329.60;;;;;;5096750;28;20066;-70
2021/05/13 06:18:50;;;;;;;7.57;4.82;;;409.80;2355.20;;;;;;5096065;28;20063;-69
2021/05/13 06:21:16;;;;;;;11.65;5.32;;;409.80;2355.20;;;;;;5096897;28;20067;-70
2021/05/13 06:23:53;;;;;;;15.05;7.32;;;409.80;2355.20;;;;;;5097379;28;20433;-70
2021/05/13 06:26:30;;;;;;;11.70;5.40;;;409.90;2355.20;;;;;;5096549;28;20107;-70
2021/05/13 06:28:56;;;;;;;8.55;5.65;;;409.90;2355.20;;;;;;5096462;28;20016;-69
2021/05/13 06:31:22;;;;;;;6.20;5.20;;;409.90;2355.20;;;;;;5096709;28;20077;-70
2021/05/13 06:33:48;;;;;;;6.78;5.30;;;410.00;2355.20;;;;;;5095754;28;20552;-70
2021/05/13 06:36:15;;;;;;;5.88;4.90;;;410.00;2355.20;;;;;;5096120;28;20071;-70
2021/05/13 06:38:42;;;;;;;6.55;4.80;;;410.10;2355.20;;;;;;5096292;28;20023;-70
2021/05/13 06:41:09;;;;;;;10.02;4.65;;;410.10;2355.20;;;;;;5096476;28;20028;-70
2021/05/13 06:43:38;;;;;;;6.40;4.72;;;410.20;2329.60;;;;;;5096099;28;20111;-70
2021/05/13 06:46:07;;;;;;;6.03;4.03;;;410.30;2329.60;;;;;;5096229;28;20035;-71
2021/05/13 06:48:36;;;;;;;8.93;4.60;;;410.40;2304.00;;;;;;5095989;28;20048;-70
2021/05/13 06:51:03;;;;;;;5.05;3.67;;;410.50;2304.00;;;;;;5095983;28;20103;-70
2021/05/13 06:53:29;;;;;;;6.53;3.85;;;435.20;2278.40;;;;;;5095922;28;20023;-69
2021/05/13 06:55:55;;;;;;;7.05;4.07;;;435.20;2278.40;;;;;;5096540;28;20075;-69
2021/05/13 06:58:21;;;;;;;8.13;3.40;;;435.50;2278.40;;;;;;5095780;28;20047;-70
2021/05/13 07:00:48;;;;;;;7.47;3.38;;;435.60;2201.60;;;;;;5095813;28;20024;-70
2021/05/13 07:03:14;;;;;;;5.00;2.72;;;435.60;2227.20;;;;;;5095784;28;20024;-70
2021/05/13 07:05:42;;;;;;;5.28;3.17;;;435.60;2201.60;;;;;;5095689;28;20095;-70
2021/05/13 07:08:09;;;;;;;6.75;2.80;;;435.60;2227.20;;;;;;5095743;28;20012;-70
2021/05/13 07:10:38;;;;;;;6.35;3.85;;;435.60;2201.60;;;;;;5095641;28;20401;-70
2021/05/13 07:13:05;;;;;;;8.82;3.25;;;435.60;2201.60;;;;;;5095472;28;20512;-68
2021/05/13 07:15:34;;;;;;;10.43;3.78;;;435.70;2201.60;;;;;;5096489;28;20024;-69
2021/05/13 07:18:00;;;;;;;5.28;2.92;;;435.70;2176.00;;;;;;5096096;28;20017;-70
2021/05/13 07:20:26;;;;;;;6.07;4.00;;;435.80;2150.40;;;;;;5096256;28;20028;-68
2021/05/13 07:22:52;;;;;;;6.53;3.00;;;435.90;2201.60;;;;;;5096050;28;20074;-71
2021/05/13 07:25:19;;;;;;;6.38;2.35;;;435.90;2176.00;;;;;;5095676;28;20016;-70
2021/05/13 07:27:45;;;;;;;5.65;2.75;;;435.90;2150.40;;;;;;5095285;28;20056;-70
2021/05/13 07:30:13;;;;;;;5.18;2.10;;;436.00;2150.40;;;;;;5095559;28;20063;-70
2021/05/13 07:32:39;;;;;;;6.13;2.30;;;436.00;2124.80;;;;;;5095547;28;20030;-70
2021/05/13 07:35:05;;;;;;;5.63;1.98;;;436.00;2124.80;;;;;;5093956;28;20024;-70
2021/05/13 07:37:32;;;;;;;20.70;3.13;;;436.10;2124.80;;;;;;5094994;28;20041;-75
2021/05/13 07:39:58;;;;;;;5.90;1.90;;;436.00;2099.20;;;;;;5095027;28;20111;-70
2021/05/13 07:42:24;;;;;;;3.50;2.08;;;436.10;2099.20;;;;;;5095409;28;20031;-70
2021/05/13 07:44:50;;;;;;;13.00;5.13;;;436.10;2099.20;;;;;;5094626;28;20025;-70
2021/05/13 07:47:18;;;;;;;7.75;4.15;;;436.10;2073.60;;;;;;5093616;28;20027;-71
2021/05/13 07:49:44;;;;;;;4.88;2.63;;;460.80;2124.80;;;;;;5094604;28;20035;-71
2021/05/13 07:52:10;;;;;;;4.45;1.88;;;460.80;2099.20;;;;;;5094609;28;20024;-71
2021/05/13 07:54:36;;;;;;;5.50;1.65;;;460.80;2099.20;;;;;;5094942;28;20046;-71
2021/05/13 07:57:06;;;;;;;4.55;2.22;;;460.80;2124.80;;;;;;5094788;28;20074;-71
2021/05/13 07:59:32;;;;;;;4.65;2.10;;;436.00;2099.20;;;;;;5094890;28;20016;-70
2021/05/13 08:01:58;;;;;;;3.50;2.28;;;436.00;2124.80;;;;;;5094437;28;20024;-71
2021/05/13 08:04:24;;;;;;;4.30;2.63;;;435.90;2150.40;;;;;;5094438;28;20483;-70
2021/05/13 08:06:50;;;;;;;4.85;3.10;;;435.90;2150.40;;;;;;5094356;28;20416;-71
2021/05/13 08:09:16;;;;;;;5.10;3.33;;;435.90;2150.40;;;;;;5094370;28;20024;-71
2021/05/13 08:11:42;;;;;;;6.03;3.03;;;435.90;2150.40;;;;;;5093060;28;20085;-70
2021/05/13 08:14:08;;;;;;;8.13;3.28;;;435.90;2150.40;;;;;;5092563;28;20039;-68
2021/05/13 08:16:34;;;;;;;4.40;2.95;;;435.90;2176.00;;;;;;5091833;28;20043;-70
2021/05/13 08:19:00;;;;;;;4.60;2.40;;;435.90;2176.00;;;;;;5093157;28;20015;-70
2021/05/13 08:21:26;;;;;;;5.43;2.55;;;435.90;2150.40;;;;;;5092254;28;20032;-68
2021/05/13 08:23:51;;;;;;;3.58;2.25;;;436.00;2176.00;;;;;;5093101;28;20540;-68
2021/05/13 08:26:17;;;;;;;3.97;2.50;;;436.00;2176.00;;;;;;5094130;28;20028;-68
2021/05/13 08:28:43;;;;;;;4.60;2.45;;;436.00;2176.00;;;;;;5094902;28;20024;-68
2021/05/13 08:31:09;;;;;;;5.25;2.50;;;436.00;2176.00;;;;;;5094067;28;20024;-70
2021/05/13 08:33:35;;;;;;;5.78;2.42;;;436.00;2124.80;;;;;;5094235;28;20062;-70
2021/05/13 08:36:01;;;;;;;7.85;2.50;;;436.00;2150.40;;;;;;5094323;28;20032;-68
2021/05/13 08:38:27;;;;;;;5.80;3.28;;;436.00;2124.80;;;;;;5092659;28;20024;-68
2021/05/13 08:40:53;;;;;;;4.88;2.70;;;436.00;2150.40;;;;;;5094119;28;20024;-68
2021/05/13 08:43:29;;;;;;;4.95;2.72;;;436.00;2150.40;;;;;;5094132;28;20071;-69
2021/05/13 08:45:57;;;;;;;7.55;2.90;;;460.80;2176.00;;;;;;5092555;28;20024;-70
2021/05/13 08:48:28;;;;;;;4.28;2.38;;;460.80;2176.00;;;;;;5093774;28;20035;-70
2021/05/13 08:50:55;;;;;;;5.30;2.17;;;460.80;2150.40;;;;;;5094125;28;20032;-70
2021/05/13 08:53:22;;;;;;;4.65;2.28;;;460.80;2150.40;;;;;;5093696;28;20477;-70
2021/05/13 08:55:48;;;;;;;5.05;1.90;;;460.90;2150.40;;;;;;5093627;28;20124;-69
2021/05/13 08:58:14;;;;;;;5.53;2.03;;;461.00;2124.80;;;;;;5093742;28;20145;-70
2021/05/13 09:00:51;;;;;;;3.15;1.55;;;461.10;2073.60;;;;;;5093847;28;20047;-68
2021/05/13 09:03:36;;;;;;;7.53;2.67;;;461.10;1996.80;;;;;;5093616;28;20024;-68
2021/05/13 09:06:06;;;;;;;6.10;2.65;;;461.10;2022.40;;;;;;5093660;28;20035;-70
2021/05/13 09:08:33;;;;;;;7.68;2.25;;;461.20;2022.40;;;;;;5093942;28;20031;-69
2021/05/13 09:11:13;;;;;;;2.85;1.23;;;461.30;1996.80;;;;;;5093600;28;20024;-70
2021/05/13 09:13:39;;;;;;;5.78;1.42;;;461.40;1945.60;;;;;;5093460;28;20506;-70
2021/05/13 09:16:25;;;;;;;4.38;1.20;;;461.40;1945.60;;;;;;5093613;28;20040;-70
2021/05/13 09:18:53;;;;;;;4.40;1.60;;;461.50;1945.60;;;;;;5093853;28;20020;-71
2021/05/13 09:21:20;;;;;;;3.88;1.25;;;461.60;1894.40;;;;;;5094020;28;20379;-70
2021/05/13 09:23:46;;;;;;;5.45;1.50;;;461.60;1894.40;;;;;;5093712;28;20043;-68
2021/05/13 09:26:15;;;;;;;4.80;1.65;;;461.70;1945.60;;;;;;5093569;28;20377;-70
2021/05/13 09:28:43;;;;;;;6.93;1.48;;;461.70;1920.00;;;;;;5093624;28;20073;-71
2021/05/13 09:31:29;;;;;;;3.53;1.70;;;486.40;1945.60;;;;;;5093443;28;20488;-71
2021/05/13 09:34:11;;;;;;;5.57;2.00;;;486.50;1945.60;;;;;;5093268;28;20474;-71
2021/05/13 09:36:37;;;;;;;6.50;1.88;;;486.60;1920.00;;;;;;5093553;28;20028;-70
2021/05/13 09:39:23;;;;;;;4.35;1.60;;;486.60;1894.40;;;;;;5093588;28;20024;-71
2021/05/13 09:42:01;;;;;;;9.20;1.30;;;486.60;1894.40;;;;;;5093242;28;20027;-71
2021/05/13 09:44:43;;;;;;;4.18;1.35;;;486.70;1894.40;;;;;;5093253;28;20027;-71
2021/05/13 09:47:19;;;;;;;4.63;1.60;;;486.60;1894.40;;;;;;5093270;28;20533;-68
2021/05/13 09:49:55;;;;;;;4.88;1.90;;;486.80;1945.60;;;;;;5093109;28;20044;-70
2021/05/13 09:52:46;;;;;;;4.70;1.80;;;486.80;1945.60;;;;;;5093132;28;20541;-69
2021/05/13 09:55:23;;;;;;;2.83;1.40;;;486.80;1920.00;;;;;;5093158;28;20031;-71
2021/05/13 09:57:56;;;;;;;3.08;1.33;;;486.90;1868.80;;;;;;5093401;28;20063;-72
2021/05/13 10:00:38;;;;;;;3.08;1.42;;;486.90;1868.80;;;;;;5093080;28;20020;-71
2021/05/13 10:03:13;;;;;;;2.80;1.50;;;486.90;1868.80;;;;;;5093061;28;20020;-72
2021/05/13 10:05:41;;;;;;;4.93;1.73;;;486.90;1894.40;;;;;;5093088;28;20031;-70
2021/05/13 10:08:08;;;;;;;3.28;1.60;;;486.90;1894.40;;;;;;5093270;28;20157;-70
2021/05/13 10:10:35;;;;;;;2.63;1.42;;;487.10;1894.40;;;;;;5096636;28;20472;-70
2021/05/13 10:13:02;;;;;;;4.95;1.95;;;487.20;1894.40;;;;;;5096497;28;20059;-71
2021/05/13 10:15:29;;;;;;;6.47;1.65;;;487.20;1868.80;;;;;;5096607;28;20032;-71
2021/05/13 10:17:57;;;;;;;2.85;1.50;;;512.00;1843.20;;;;;;5096656;28;20013;-71
2021/05/13 10:20:28;;;;;;;3.55;1.85;;;512.00;1817.60;;;;;;5096811;28;20473;-72
2021/05/13 10:22:54;;;;;;;5.95;1.33;;;512.00;1817.60;;;;;;5096962;28;20016;-71
2021/05/13 10:25:21;;;;;;;5.47;1.75;;;512.00;1792.00;;;;;;5096740;28;20028;-69
2021/05/13 10:27:49;;;;;;;6.57;2.00;;;512.00;1792.00;;;;;;5096451;28;20028;-70
2021/05/13 10:30:16;;;;;;;4.88;1.90;;;487.30;1817.60;;;;;;5096468;28;20044;-72
2021/05/13 10:32:42;;;;;;;6.20;1.67;;;487.20;1792.00;;;;;;5096342;28;20032;-71
2021/05/13 10:35:09;;;;;;;5.00;1.67;;;487.20;1817.60;;;;;;5096474;28;20020;-69
2021/05/13 10:37:38;;;;;;;4.60;1.58;;;487.20;1817.60;;;;;;5096277;28;20031;-72
2021/05/13 10:41:06;;;;;;;5.88;1.58;;;487.20;1792.00;;;;;;5096488;28;20024;-73
2021/05/13 10:43:05;;;;;;;5.38;1.52;;;487.20;1740.80;;;;;;5082945;28;20043;-71
2021/05/13 10:45:36;;;;;;;7.03;1.73;;;487.30;1740.80;;;;;;5096082;28;20039;-72
2021/05/13 10:48:15;;;;;;;5.57;1.70;;;487.30;1740.80;;;;;;5096049;28;20017;-72
2021/05/13 10:50:42;;;;;;;5.85;1.50;;;512.20;1766.40;;;;;;5096064;28;20380;-72
2021/05/13 10:53:35;;;;;;;8.05;1.40;;;512.40;1664.00;;;;;;5096315;28;20387;-71
2021/05/13 10:56:35;;;;;;;5.78;1.05;;;512.60;1612.80;;;;;;5096072;28;20119;-73
2021/05/13 10:59:14;;;;;;;5.40;1.30;;;512.60;1536.00;;;;;;5095898;28;20036;-72
2021/05/13 11:01:47;;;;;;;5.80;1.08;;;512.50;1510.40;;;;;;5096161;28;20023;-72
2021/05/13 11:04:25;;;;;;;3.88;1.10;;;512.40;1459.20;;;;;;5095813;28;20036;-70
2021/05/13 11:06:51;;;;;;;3.83;1.30;;;512.30;1536.00;;;;;;5096153;28;20032;-72
2021/05/13 11:09:43;;;;;;;4.03;1.00;;;512.50;1510.40;;;;;;5095943;28;20023;-71
2021/05/13 11:12:09;;;;;;;5.88;1.75;;;512.30;1561.60;;;;;;5095504;28;20020;-72
2021/05/13 11:15:13;;;;;;;6.15;1.42;;;512.10;1587.20;;;;;;5095848;28;20021;-72
2021/05/13 11:17:48;;;;;;;;;;;512.10;1561.60;;;;;;5094783;28;20039;-72
2021/05/13 11:20:31;;;;;;;3.58;1.00;;;512.10;1587.20;;;;;;5095853;28;20245;-72
2021/05/13 11:23:08;;;;;;;6.63;1.50;;;512.00;1612.80;;;;;;5094389;28;20386;-70
2021/05/13 11:25:56;;;;;;;3.55;1.20;;;486.90;1715.20;;;;;;5095352;28;20036;-72
2021/05/13 11:28:26;;;;;;;3.10;1.00;;;486.60;1715.20;;;;;;5095359;28;20035;-71
2021/05/13 11:31:06;;;;;;;4.85;1.60;;;486.40;1766.40;;;;;;5095435;28;20020;-71
2021/05/13 11:33:42;;;;;;;4.78;1.25;;;461.70;1817.60;;;;;;5095447;28;20028;-71
2021/05/13 11:36:10;;;;;;;15.18;3.08;;;461.50;1868.80;;;;;;5095351;28;20032;-71
2021/05/13 11:38:37;;;;;;;10.52;2.30;;;461.20;1945.60;;;;;;5095427;28;20365;-70
2021/05/13 11:41:05;;;;;;;8.88;2.20;;;461.00;1945.60;;;;;;5095166;28;20476;-72
2021/05/13 11:43:41;;;;;;;7.40;3.00;;;460.80;2022.40;;;;;;5094942;28;20032;-71
2021/05/13 11:46:10;;;;;;;8.13;2.70;;;436.00;2022.40;;;;;;5095328;28;20024;-69
2021/05/13 11:48:35;;;;;;;7.63;2.90;;;435.90;2022.40;;;;;;5094932;28;20028;-71
2021/05/13 11:51:13;;;;;;;7.03;2.15;;;435.90;2022.40;;;;;;5094820;28;20017;-69
2021/05/13 11:53:41;;;;;;;10.90;2.60;;;436.00;2073.60;;;;;;5094928;28;20035;-71
2021/05/13 11:56:08;;;;;;;6.60;1.90;;;436.00;2099.20;;;;;;5094704;28;20115;-69
2021/05/13 11:58:40;;;;;;;7.28;2.25;;;436.10;2124.80;;;;;;5094656;28;20480;-71
2021/05/13 12:01:29;;;;;;;9.23;2.15;;;436.10;2176.00;;;;;;5094635;28;20023;-70
2021/05/13 12:04:10;;;;;;;7.95;1.60;;;460.80;2150.40;;;;;;5094665;28;20027;-71
2021/05/13 12:06:58;;;;;;;6.63;1.33;;;460.80;2150.40;;;;;;5094616;28;20420;-71
2021/05/13 12:09:25;;;;;;;4.60;1.35;;;461.10;2150.40;;;;;;5094780;28;20053;-71
2021/05/13 12:11:53;;;;;;;3.70;1.33;;;461.40;2176.00;;;;;;5094748;28;20036;-72
2021/05/13 12:14:27;;;;;;;5.80;1.00;;;461.60;2124.80;;;;;;5094311;28;20055;-72
2021/05/13 12:17:05;;;;;;;1.70;0.93;;;486.40;2073.60;;;;;;5094313;28;20051;-73
2021/05/13 12:19:38;;;;;;;2.33;0.80;;;486.50;2048.00;;;;;;5094420;28;20534;-71
2021/05/13 12:22:09;;;;;;;2.85;1.13;;;486.50;1945.60;;;;;;5094297;28;20468;-72
2021/05/13 12:24:37;;;;;;;2.42;0.90;;;486.40;1945.60;;;;;;5094330;28;20063;-72
2021/05/13 12:27:04;;;;;;;2.80;1.20;;;486.40;1971.20;;;;;;5094208;28;20028;-71
2021/05/13 12:29:31;;;;;;;1.88;0.95;;;461.60;1945.60;;;;;;5094129;28;20111;-70
2021/05/13 12:31:57;;;;;;;1.92;0.90;;;461.60;1920.00;;;;;;5093839;28;20024;-71